Time;durP1;ratioP1;P1;durP2;ratioP2;P2;SDS_P1;SDS_P2;PMS_P1;PMS_P2;Temp;Humidity;BMP_temperature;BMP_pressure;BME280_temperature;BME280_humidity;BME280_pressure;Samples;Min_cycle;Max_cycle;Signal;HPM_P1;HPM_P2
2022/01/27 00:01:37;;;;;;;49.53;26.07;;;;;;;;;;5036037;28;20467;-70
2022/01/27 00:04:18;;;;;;;45.90;27.63;;;;;;;;;;5035432;28;20475;-70
2022/01/27 00:06:44;;;;;;;45.13;25.90;;;;;;;;;;5035288;28;20517;-71
2022/01/27 00:09:19;;;;;;;50.07;25.07;;;;;;;;;;5035723;28;20435;-69
2022/01/27 00:11:47;;;;;;;50.90;26.03;;;;;;;;;;5035657;28;20481;-69
2022/01/27 00:14:15;;;;;;;47.10;25.97;;;;;;;;;;5035888;28;20447;-69
2022/01/27 00:16:52;;;;;;;46.53;26.07;;;;;;;;;;5035507;28;20647;-67
2022/01/27 00:19:18;;;;;;;42.63;26.53;;;;;;;;;;5035751;28;20441;-72
2022/01/27 00:21:44;;;;;;;46.60;25.20;;;;;;;;;;5035388;28;20523;-73
2022/01/27 00:24:10;;;;;;;41.23;24.57;;;;;;;;;;5035369;28;20530;-71
2022/01/27 00:26:36;;;;;;;49.80;26.23;;;;;;;;;;5035472;28;20199;-72
2022/01/27 00:29:02;;;;;;;48.27;25.93;;;;;;;;;;5035178;28;20207;-74
2022/01/27 00:31:28;;;;;;;41.37;25.27;;;;;;;;;;5035439;28;20223;-71
2022/01/27 00:33:55;;;;;;;44.77;26.00;;;;;;;;;;5035223;28;20428;-73
2022/01/27 00:36:21;;;;;;;41.90;24.70;;;;;;;;;;5035265;28;20562;-71
2022/01/27 00:38:49;;;;;;;37.73;23.23;;;;;;;;;;5034190;28;20427;-72
2022/01/27 00:41:19;;;;;;;43.40;24.93;;;;;;;;;;5035357;28;20439;-72
2022/01/27 00:43:45;;;;;;;40.43;24.27;;;;;;;;;;5033091;28;20439;-70
2022/01/27 00:46:15;;;;;;;39.60;23.93;;;;;;;;;;5034931;28;20435;-72
2022/01/27 00:48:41;;;;;;;42.23;24.80;;;;;;;;;;5034943;28;20436;-70
2022/01/27 00:51:11;;;;;;;45.67;24.83;;;;;;;;;;5034831;28;20920;-73
2022/01/27 00:53:44;;;;;;;43.63;24.97;;;;;;;;;;5034918;28;20444;-70
2022/01/27 00:56:20;;;;;;;44.43;25.20;;;;;;;;;;5034819;28;20479;-71
2022/01/27 00:58:58;;;;;;;44.00;24.93;;;;;;;;;;5034771;28;20441;-69
2022/01/27 01:01:29;;;;;;;43.27;24.57;;;;;;;;;;5034852;28;20435;-69
2022/01/27 01:03:59;;;;;;;37.90;23.43;;;;;;;;;;5034561;28;21025;-71
2022/01/27 01:16:49;;;;;;;40.83;23.33;;;;;;;;;;5034432;28;20487;-70
2022/01/27 01:19:35;;;;;;;38.63;21.53;;;;;;;;;;5034342;28;20220;-71
2022/01/27 01:30:48;;;;;;;40.57;22.07;;;;;;;;;;5034362;28;20462;-69
2022/01/27 01:33:21;;;;;;;40.20;21.80;;;;;;;;;;5034159;28;20497;-69
2022/01/27 01:35:49;;;;;;;34.93;21.40;;;;;;;;;;5034083;28;20432;-70
2022/01/27 01:38:18;;;;;;;34.33;20.13;;;;;;;;;;5033996;28;20427;-70
2022/01/27 01:40:45;;;;;;;31.27;20.70;;;;;;;;;;5034059;28;20444;-69
2022/01/27 01:43:11;;;;;;;34.03;20.60;;;;;;;;;;5033996;28;20484;-69
2022/01/27 01:45:37;;;;;;;33.63;20.63;;;;;;;;;;5033887;28;20934;-68
2022/01/27 01:48:03;;;;;;;34.17;21.03;;;;;;;;;;5033696;28;20435;-69
2022/01/27 01:50:30;;;;;;;32.37;20.17;;;;;;;;;;5033781;28;20207;-71
2022/01/27 01:52:56;;;;;;;34.97;20.50;;;;;;;;;;5033629;28;20515;-68
2022/01/27 01:55:23;;;;;;;30.17;19.03;;;;;;;;;;5033777;28;20530;-68
2022/01/27 01:57:51;;;;;;;34.40;18.90;;;;;;;;;;5033500;28;20235;-67
2022/01/27 02:00:17;;;;;;;33.63;20.43;;;;;;;;;;5033714;28;20435;-68
2022/01/27 02:02:44;;;;;;;30.93;20.13;;;;;;;;;;5033468;28;20554;-71
2022/01/27 02:05:10;;;;;;;32.53;20.63;;;;;;;;;;5033455;28;20518;-70
2022/01/27 02:07:49;;;;;;;33.73;19.37;;;;;;;;;;5033486;28;20831;-69
2022/01/27 02:18:38;;;;;;;36.07;21.53;;;;;;;;;;4992684;28;20533;-70
2022/01/27 02:21:05;;;;;;;36.07;20.50;;;;;;;;;;5033121;28;20936;-71
2022/01/27 02:23:31;;;;;;;33.37;20.23;;;;;;;;;;5033258;28;20439;-72
2022/01/27 02:25:57;;;;;;;33.80;22.37;;;;;;;;;;5033130;28;20447;-70
2022/01/27 02:28:23;;;;;;;30.90;20.87;;;;;;;;;;5033193;28;20193;-70
2022/01/27 02:30:49;;;;;;;35.20;21.70;;;;;;;;;;5033254;28;20197;-70
2022/01/27 02:33:15;;;;;;;34.67;21.37;;;;;;;;;;5033187;28;20671;-69
2022/01/27 02:35:41;;;;;;;35.43;22.13;;;;;;;;;;5033100;28;20495;-70
2022/01/27 02:38:09;;;;;;;37.00;21.97;;;;;;;;;;5032842;28;20244;-71
2022/01/27 02:40:39;;;;;;;33.40;21.30;;;;;;;;;;5033040;28;20205;-69
2022/01/27 02:43:05;;;;;;;32.00;21.67;;;;;;;;;;5032869;28;20986;-70
2022/01/27 02:45:35;;;;;;;32.30;20.37;;;;;;;;;;5032862;28;20447;-72
2022/01/27 02:48:01;;;;;;;37.33;22.57;;;;;;;;;;5032703;28;20439;-73
2022/01/27 02:50:27;;;;;;;35.23;21.53;;;;;;;;;;5032847;28;20447;-71
2022/01/27 02:52:53;;;;;;;34.57;22.20;;;;;;;;;;5032700;28;20440;-71
2022/01/27 02:55:21;;;;;;;33.53;21.70;;;;;;;;;;5032758;28;20443;-72
2022/01/27 02:57:47;;;;;;;36.07;21.47;;;;;;;;;;5032549;28;20224;-72
2022/01/27 03:00:13;;;;;;;29.43;21.63;;;;;;;;;;5032154;28;20450;-72
2022/01/27 03:02:39;;;;;;;35.73;21.27;;;;;;;;;;5030859;28;20251;-68
2022/01/27 03:05:05;;;;;;;34.33;22.07;;;;;;;;;;5032546;28;20460;-73
2022/01/27 03:07:31;;;;;;;34.33;22.73;;;;;;;;;;5032576;28;20303;-72
2022/01/27 03:09:57;;;;;;;36.87;22.23;;;;;;;;;;5032433;28;20519;-70
2022/01/27 03:12:27;;;;;;;37.20;21.70;;;;;;;;;;5032318;28;20322;-72
2022/01/27 03:14:53;;;;;;;39.53;23.57;;;;;;;;;;5032412;28;20204;-72
2022/01/27 03:17:19;;;;;;;38.30;23.93;;;;;;;;;;5032427;28;20483;-73
2022/01/27 03:19:45;;;;;;;37.50;23.83;;;;;;;;;;5032459;28;20943;-69
2022/01/27 03:22:11;;;;;;;38.33;23.57;;;;;;;;;;5032302;28;20212;-70
2022/01/27 03:24:38;;;;;;;34.70;22.50;;;;;;;;;;5032371;28;20200;-73
2022/01/27 03:27:17;;;;;;;33.80;21.40;;;;;;;;;;5032146;28;20435;-72
2022/01/27 03:29:45;;;;;;;37.77;23.33;;;;;;;;;;5032274;28;20522;-71
2022/01/27 03:32:11;;;;;;;35.90;22.33;;;;;;;;;;5032328;28;20451;-73
2022/01/27 03:34:37;;;;;;;36.20;23.50;;;;;;;;;;5032270;28;20443;-70
2022/01/27 03:37:03;;;;;;;34.00;22.77;;;;;;;;;;5031976;28;20482;-74
2022/01/27 03:39:29;;;;;;;37.37;22.83;;;;;;;;;;5032337;28;20443;-73
2022/01/27 03:41:56;;;;;;;34.97;23.03;;;;;;;;;;5032135;28;20442;-72
2022/01/27 03:44:23;;;;;;;35.27;23.17;;;;;;;;;;5032206;28;20197;-72
2022/01/27 03:46:52;;;;;;;33.80;22.33;;;;;;;;;;5032072;28;20542;-73
2022/01/27 03:49:18;;;;;;;34.00;22.77;;;;;;;;;;5031999;28;20447;-73
2022/01/27 03:51:45;;;;;;;36.30;24.07;;;;;;;;;;5032082;28;20439;-72
2022/01/27 03:54:12;;;;;;;37.47;22.63;;;;;;;;;;5031989;28;20201;-71
2022/01/27 03:56:38;;;;;;;35.77;23.07;;;;;;;;;;5032114;28;20476;-73
2022/01/27 03:59:04;;;;;;;35.43;22.80;;;;;;;;;;5032126;28;20505;-73
2022/01/27 04:01:31;;;;;;;33.03;23.50;;;;;;;;;;5032055;28;20201;-72
2022/01/27 04:04:00;;;;;;;34.83;23.47;;;;;;;;;;5031848;28;20899;-73
2022/01/27 04:06:33;;;;;;;39.50;23.53;;;;;;;;;;5032117;28;20490;-74
2022/01/27 04:09:00;;;;;;;33.73;21.70;;;;;;;;;;5032008;28;20458;-75
2022/01/27 04:11:26;;;;;;;38.03;24.33;;;;;;;;;;5031978;28;20490;-73
2022/01/27 04:13:52;;;;;;;34.47;23.00;;;;;;;;;;5034418;28;20865;-74
2022/01/27 04:16:18;;;;;;;35.27;23.47;;;;;;;;;;5035447;28;21041;-72
2022/01/27 04:18:46;;;;;;;37.80;24.40;;;;;;;;;;5035779;28;20431;-72
2022/01/27 04:21:13;;;;;;;35.30;22.93;;;;;;;;;;5035409;28;20209;-72
2022/01/27 04:23:39;;;;;;;35.23;23.20;;;;;;;;;;5035523;28;20443;-73
2022/01/27 04:26:06;;;;;;;35.43;22.60;;;;;;;;;;5033620;28;20432;-72
2022/01/27 04:28:35;;;;;;;36.00;23.17;;;;;;;;;;5035546;28;20840;-73
2022/01/27 04:31:04;;;;;;;38.23;23.90;;;;;;;;;;5035440;28;20439;-72
2022/01/27 04:33:32;;;;;;;35.37;23.70;;;;;;;;;;5035486;28;20432;-73
2022/01/27 04:36:02;;;;;;;33.00;22.20;;;;;;;;;;5035172;28;20800;-72
2022/01/27 04:38:40;;;;;;;36.33;24.03;;;;;;;;;;5035278;28;20441;-72
2022/01/27 04:41:17;;;;;;;37.63;23.23;;;;;;;;;;5035091;28;20443;-73
2022/01/27 04:44:00;;;;;;;32.53;23.20;;;;;;;;;;5034999;28;20931;-71
2022/01/27 04:46:39;;;;;;;35.70;23.57;;;;;;;;;;5035193;28;20431;-72
2022/01/27 04:49:08;;;;;;;36.17;23.43;;;;;;;;;;5035030;28;20750;-71
2022/01/27 04:51:34;;;;;;;34.00;22.90;;;;;;;;;;5034824;28;20523;-73
2022/01/27 04:56:33;;;;;;;36.13;23.43;;;;;;;;;;5034977;28;20487;-72
2022/01/27 04:59:03;;;;;;;30.50;21.23;;;;;;;;;;5034900;28;20431;-72
2022/01/27 05:01:41;;;;;;;37.93;23.80;;;;;;;;;;5034892;28;20450;-69
2022/01/27 05:04:11;;;;;;;29.10;21.63;;;;;;;;;;5034661;28;20481;-72
2022/01/27 05:06:37;;;;;;;32.67;22.80;;;;;;;;;;5034733;28;20490;-71
2022/01/27 05:09:05;;;;;;;31.83;21.70;;;;;;;;;;5034520;28;20489;-73
2022/01/27 05:11:38;;;;;;;30.47;21.77;;;;;;;;;;5034550;28;21062;-72
2022/01/27 05:14:14;;;;;;;32.47;22.23;;;;;;;;;;5034465;28;20424;-71
2022/01/27 05:16:40;;;;;;;33.30;21.83;;;;;;;;;;5034567;28;20470;-71
2022/01/27 05:19:06;;;;;;;31.80;22.57;;;;;;;;;;5034474;28;21018;-71
2022/01/27 05:21:37;;;;;;;32.20;22.93;;;;;;;;;;5034737;28;20435;-73
2022/01/27 05:24:05;;;;;;;28.27;20.20;;;;;;;;;;5034161;28;20428;-72
2022/01/27 05:26:33;;;;;;;28.83;21.70;;;;;;;;;;5034599;28;20432;-74
2022/01/27 05:28:59;;;;;;;30.73;21.63;;;;;;;;;;5034463;28;20428;-73
2022/01/27 05:31:25;;;;;;;33.73;22.03;;;;;;;;;;5034207;28;20487;-71
2022/01/27 05:33:51;;;;;;;30.83;20.87;;;;;;;;;;5034027;28;20443;-69
2022/01/27 05:36:17;;;;;;;28.87;20.90;;;;;;;;;;5033863;28;20486;-73
2022/01/27 05:38:43;;;;;;;29.33;20.53;;;;;;;;;;5034140;28;20439;-73
2022/01/27 05:41:11;;;;;;;33.77;21.13;;;;;;;;;;5033936;28;20439;-71
2022/01/27 05:43:37;;;;;;;33.43;22.63;;;;;;;;;;5033946;28;20435;-72
2022/01/27 05:46:03;;;;;;;29.30;20.97;;;;;;;;;;5033878;28;20454;-73
2022/01/27 05:48:29;;;;;;;35.23;22.97;;;;;;;;;;5033573;28;20658;-73
2022/01/27 05:50:56;;;;;;;32.23;21.63;;;;;;;;;;5033843;28;20447;-73
2022/01/27 05:53:22;;;;;;;31.80;22.43;;;;;;;;;;5033927;28;20459;-73
2022/01/27 05:55:48;;;;;;;30.80;21.87;;;;;;;;;;5033932;28;20936;-72
2022/01/27 05:58:16;;;;;;;33.73;23.00;;;;;;;;;;5033948;28;20225;-73
2022/01/27 06:00:42;;;;;;;30.67;22.63;;;;;;;;;;5033657;28;20209;-72
2022/01/27 06:03:08;;;;;;;30.23;20.83;;;;;;;;;;5033445;28;20463;-73
2022/01/27 06:05:34;;;;;;;28.23;21.33;;;;;;;;;;5033448;28;20955;-72
2022/01/27 06:08:00;;;;;;;32.33;22.17;;;;;;;;;;5033171;28;20485;-73
2022/01/27 06:10:26;;;;;;;35.17;23.70;;;;;;;;;;5033343;28;20432;-72
2022/01/27 06:12:53;;;;;;;30.47;21.93;;;;;;;;;;5032988;28;20290;-74
2022/01/27 06:15:21;;;;;;;31.07;22.53;;;;;;;;;;5033272;28;20459;-74
2022/01/27 06:17:47;;;;;;;34.10;22.87;;;;;;;;;;5032660;28;20481;-73
2022/01/27 06:20:13;;;;;;;31.40;22.13;;;;;;;;;;5033114;28;20474;-74
2022/01/27 06:22:40;;;;;;;34.13;23.40;;;;;;;;;;5033088;28;20490;-73
2022/01/27 06:25:07;;;;;;;36.70;24.07;;;;;;;;;;5033167;28;20466;-73
2022/01/27 06:27:33;;;;;;;32.83;23.87;;;;;;;;;;5033209;28;20436;-73
2022/01/27 06:29:59;;;;;;;30.97;22.60;;;;;;;;;;5033045;28;20436;-73
2022/01/27 06:32:26;;;;;;;34.40;24.10;;;;;;;;;;5033020;28;20448;-72
2022/01/27 06:34:52;;;;;;;36.53;24.63;;;;;;;;;;5032515;28;20509;-73
2022/01/27 06:37:18;;;;;;;31.87;23.37;;;;;;;;;;5032409;28;20484;-72
2022/01/27 06:39:44;;;;;;;35.07;24.40;;;;;;;;;;5015219;28;20442;-73
2022/01/27 06:42:10;;;;;;;33.40;24.23;;;;;;;;;;5032907;28;20227;-69
2022/01/27 06:44:36;;;;;;;38.37;25.03;;;;;;;;;;5033056;28;20216;-72
2022/01/27 06:47:02;;;;;;;34.50;24.17;;;;;;;;;;5032803;28;20458;-75
2022/01/27 06:49:30;;;;;;;37.23;25.20;;;;;;;;;;5033032;28;20423;-73
2022/01/27 06:51:56;;;;;;;37.40;24.33;;;;;;;;;;5032624;28;20940;-74
2022/01/27 06:54:22;;;;;;;35.93;25.70;;;;;;;;;;5032474;28;20439;-71
2022/01/27 06:56:48;;;;;;;34.27;24.97;;;;;;;;;;5032893;28;20492;-73
2022/01/27 06:59:14;;;;;;;36.13;24.07;;;;;;;;;;5032635;28;20439;-72
2022/01/27 07:01:40;;;;;;;37.30;26.23;;;;;;;;;;5032664;28;20443;-73
2022/01/27 07:04:06;;;;;;;36.20;24.43;;;;;;;;;;5032602;28;20459;-73
2022/01/27 07:06:35;;;;;;;36.20;24.67;;;;;;;;;;5032444;28;20427;-74
2022/01/27 07:09:01;;;;;;;35.00;25.03;;;;;;;;;;5032710;28;20485;-71
2022/01/27 07:11:27;;;;;;;38.37;26.20;;;;;;;;;;5032532;28;20889;-72
2022/01/27 07:13:53;;;;;;;37.57;26.10;;;;;;;;;;5032817;28;20221;-71
2022/01/27 07:16:19;;;;;;;35.60;25.13;;;;;;;;;;5032411;28;20223;-74
2022/01/27 07:18:45;;;;;;;35.17;24.43;;;;;;;;;;5032693;28;20480;-69
2022/01/27 07:21:11;;;;;;;39.57;25.27;;;;;;;;;;5032489;28;20263;-67
2022/01/27 07:23:38;;;;;;;37.93;25.47;;;;;;;;;;5032873;28;20431;-68
2022/01/27 07:26:04;;;;;;;40.17;25.53;;;;;;;;;;5031868;28;20459;-67
2022/01/27 07:28:31;;;;;;;40.17;26.20;;;;;;;;;;5032542;28;20531;-67
2022/01/27 07:30:57;;;;;;;37.57;26.37;;;;;;;;;;5031982;28;20478;-69
2022/01/27 07:33:23;;;;;;;40.33;25.40;;;;;;;;;;5032188;28;20506;-69
2022/01/27 07:35:50;;;;;;;41.47;26.10;;;;;;;;;;5032252;28;20444;-67
2022/01/27 07:38:16;;;;;;;36.83;25.83;;;;;;;;;;5032100;28;20260;-67
2022/01/27 07:40:43;;;;;;;39.63;26.23;;;;;;;;;;5032230;28;20456;-70
2022/01/27 07:43:10;;;;;;;38.90;26.27;;;;;;;;;;5032027;28;20467;-70
2022/01/27 07:45:36;;;;;;;39.03;25.87;;;;;;;;;;5032070;28;20440;-70
2022/01/27 07:48:02;;;;;;;40.63;26.00;;;;;;;;;;5034957;28;20778;-65
2022/01/27 07:50:30;;;;;;;41.37;26.87;;;;;;;;;;5036102;28;20196;-66
2022/01/27 07:52:56;;;;;;;37.50;25.93;;;;;;;;;;5035810;28;20201;-68
2022/01/27 07:55:22;;;;;;;38.43;26.07;;;;;;;;;;5035588;28;20928;-70
2022/01/27 07:57:50;;;;;;;40.80;25.93;;;;;;;;;;5035787;28;20570;-68
2022/01/27 08:00:16;;;;;;;39.00;25.47;;;;;;;;;;5035983;28;20974;-68
2022/01/27 08:02:43;;;;;;;35.60;25.13;;;;;;;;;;5035785;28;20474;-65
2022/01/27 08:05:10;;;;;;;38.53;24.00;;;;;;;;;;5035683;28;20849;-68
2022/01/27 08:07:36;;;;;;;40.57;25.20;;;;;;;;;;5035796;28;20427;-68
2022/01/27 08:10:02;;;;;;;38.23;25.37;;;;;;;;;;5035557;28;20786;-66
2022/01/27 08:12:28;;;;;;;39.87;25.20;;;;;;;;;;5035385;28;20729;-67
2022/01/27 08:14:55;;;;;;;38.43;23.73;;;;;;;;;;5035498;28;20466;-68
2022/01/27 08:17:21;;;;;;;34.97;22.57;;;;;;;;;;5035397;28;20217;-69
2022/01/27 08:19:47;;;;;;;37.10;24.10;;;;;;;;;;5035503;28;20419;-67
2022/01/27 08:22:13;;;;;;;33.80;22.57;;;;;;;;;;5035428;28;20217;-67
2022/01/27 08:24:40;;;;;;;31.97;22.53;;;;;;;;;;5035486;28;20201;-65
2022/01/27 08:27:08;;;;;;;31.83;23.03;;;;;;;;;;5035318;28;20459;-66
2022/01/27 08:29:39;;;;;;;33.10;20.90;;;;;;;;;;5035390;28;20486;-64
2022/01/27 08:32:11;;;;;;;27.00;20.40;;;;;;;;;;5035462;28;20800;-66
2022/01/27 08:34:38;;;;;;;27.10;18.37;;;;;;;;;;5035180;28;20439;-66
2022/01/27 08:37:05;;;;;;;25.30;19.43;;;;;;;;;;5035043;28;20855;-63
2022/01/27 08:39:31;;;;;;;28.77;19.83;;;;;;;;;;5035271;28;20455;-65
2022/01/27 08:41:57;;;;;;;26.57;19.23;;;;;;;;;;5035047;28;20446;-66
2022/01/27 08:44:23;;;;;;;23.93;18.50;;;;;;;;;;5035033;28;20435;-67
2022/01/27 08:46:49;;;;;;;22.37;18.90;;;;;;;;;;5034796;28;20466;-61
2022/01/27 08:49:19;;;;;;;24.50;17.57;;;;;;;;;;5034695;28;20201;-70
2022/01/27 08:51:45;;;;;;;21.23;17.37;;;;;;;;;;5035019;28;21015;-71
2022/01/27 08:54:11;;;;;;;24.43;17.53;;;;;;;;;;5034663;28;20523;-72
2022/01/27 08:56:37;;;;;;;20.73;16.40;;;;;;;;;;5034563;28;20522;-70
2022/01/27 08:59:03;;;;;;;23.83;17.43;;;;;;;;;;5033887;28;20435;-72
2022/01/27 09:01:29;;;;;;;21.87;16.73;;;;;;;;;;5034957;28;20205;-72
2022/01/27 09:03:55;;;;;;;21.67;16.33;;;;;;;;;;5034846;28;20466;-70
2022/01/27 09:06:22;;;;;;;20.70;15.33;;;;;;;;;;5034374;28;20856;-68
2022/01/27 09:08:50;;;;;;;18.23;14.17;;;;;;;;;;5034429;28;20792;-67
2022/01/27 09:11:16;;;;;;;22.07;15.23;;;;;;;;;;5032536;28;20571;-69
2022/01/27 09:13:42;;;;;;;19.10;14.77;;;;;;;;;;5034534;28;20436;-69
2022/01/27 09:16:09;;;;;;;18.20;14.60;;;;;;;;;;5034082;28;20442;-73
2022/01/27 09:18:35;;;;;;;20.20;14.87;;;;;;;;;;5034126;28;20479;-70
2022/01/27 09:21:06;;;;;;;19.50;13.70;;;;;;;;;;5033996;28;20447;-71
2022/01/27 09:23:33;;;;;;;17.53;13.93;;;;;;;;;;5034517;28;20443;-69
2022/01/27 09:26:05;;;;;;;19.80;14.37;;;;;;;;;;5034027;28;20436;-67
2022/01/27 09:28:31;;;;;;;17.30;13.53;;;;;;;;;;5034272;28;20503;-69
2022/01/27 09:30:57;;;;;;;18.00;12.57;;;;;;;;;;5034248;28;20427;-65
2022/01/27 09:33:24;;;;;;;15.80;12.40;;;;;;;;;;5034126;28;20438;-69
2022/01/27 09:35:50;;;;;;;16.10;12.33;;;;;;;;;;5033804;28;20205;-69
2022/01/27 09:38:16;;;;;;;17.90;12.40;;;;;;;;;;5033722;28;20545;-71
2022/01/27 09:40:47;;;;;;;16.90;11.77;;;;;;;;;;5034074;28;20526;-71
2022/01/27 09:43:14;;;;;;;15.67;11.30;;;;;;;;;;5033706;28;20853;-69
2022/01/27 09:45:40;;;;;;;14.63;10.77;;;;;;;;;;5033812;28;20467;-67
2022/01/27 09:48:14;;;;;;;15.50;11.87;;;;;;;;;;5033579;28;20515;-70
2022/01/27 09:53:08;;;;;;;11.27;9.73;;;;;;;;;;5033455;28;20486;-69
2022/01/27 09:55:34;;;;;;;12.30;9.90;;;;;;;;;;5033586;28;20435;-74
2022/01/27 09:58:01;;;;;;;12.13;10.27;;;;;;;;;;5033410;28;20484;-69
2022/01/27 10:00:28;;;;;;;14.20;10.30;;;;;;;;;;5033476;28;20447;-70
2022/01/27 10:03:04;;;;;;;12.13;9.80;;;;;;;;;;5033202;28;20452;-71
2022/01/27 10:05:30;;;;;;;12.67;9.80;;;;;;;;;;5033338;28;20919;-72
2022/01/27 10:08:01;;;;;;;14.13;10.53;;;;;;;;;;5033187;28;20435;-73
2022/01/27 10:10:27;;;;;;;11.37;9.67;;;;;;;;;;5033428;28;20443;-75
2022/01/27 10:12:55;;;;;;;12.03;10.07;;;;;;;;;;5032874;28;21011;-75
2022/01/27 10:15:23;;;;;;;13.23;10.20;;;;;;;;;;5033172;28;20208;-74
2022/01/27 10:18:10;;;;;;;13.20;9.97;;;;;;;;;;5033019;28;20607;-74
2022/01/27 10:20:37;;;;;;;11.73;9.77;;;;;;;;;;5032972;28;20431;-77
2022/01/27 10:23:10;;;;;;;12.33;9.60;;;;;;;;;;5033075;28;20498;-73
2022/01/27 10:25:47;;;;;;;11.13;9.97;;;;;;;;;;5032848;28;20893;-75
2022/01/27 10:28:40;;;;;;;13.37;9.67;;;;;;;;;;5033009;28;20929;-79
2022/01/27 10:31:08;;;;;;;14.60;10.13;;;;;;;;;;5033085;28;20432;-79
2022/01/27 10:33:41;;;;;;;11.73;9.70;;;;;;;;;;5033149;28;20940;-77
2022/01/27 10:36:24;;;;;;;13.73;10.03;;;;;;;;;;5033020;28;20476;-79
2022/01/27 10:38:50;;;;;;;11.80;9.80;;;;;;;;;;5032878;28;20427;-76
2022/01/27 10:41:17;;;;;;;11.37;10.03;;;;;;;;;;5032770;28;20450;-78
2022/01/27 10:43:44;;;;;;;11.80;10.60;;;;;;;;;;5033186;28;20467;-76
2022/01/27 10:46:28;;;;;;;13.57;11.10;;;;;;;;;;5033864;28;20530;-78
2022/01/27 10:49:06;;;;;;;11.53;10.13;;;;;;;;;;5032796;28;20439;-79
2022/01/27 10:51:41;;;;;;;14.47;11.30;;;;;;;;;;5032943;28;20722;-77
2022/01/27 10:54:20;;;;;;;12.73;10.97;;;;;;;;;;5033610;28;20446;-76
2022/01/27 10:56:46;;;;;;;13.77;10.77;;;;;;;;;;5032487;28;20826;-69
2022/01/27 10:59:13;;;;;;;14.53;11.80;;;;;;;;;;5032400;28;20474;-70
2022/01/27 11:01:41;;;;;;;14.27;11.63;;;;;;;;;;5032348;28;20439;-70
2022/01/27 11:04:08;;;;;;;14.33;11.57;;;;;;;;;;5032213;28;20456;-70
2022/01/27 11:06:35;;;;;;;15.23;10.97;;;;;;;;;;5032378;28;20439;-69
2022/01/27 11:09:07;;;;;;;13.47;10.90;;;;;;;;;;5032283;28;20440;-70
2022/01/27 11:11:33;;;;;;;12.60;11.00;;;;;;;;;;5032060;28;20578;-69
2022/01/27 11:14:00;;;;;;;14.13;10.70;;;;;;;;;;5032323;28;20458;-69
2022/01/27 11:16:33;;;;;;;12.13;10.63;;;;;;;;;;5032493;28;20850;-69
2022/01/27 11:19:33;;;;;;;13.43;10.70;;;;;;;;;;5032528;28;20504;-68
2022/01/27 11:22:05;;;;;;;12.83;10.70;;;;;;;;;;5032356;28;20904;-70
2022/01/27 11:24:44;;;;;;;12.30;10.73;;;;;;;;;;5032500;28;20935;-69
2022/01/27 11:27:13;;;;;;;12.03;10.27;;;;;;;;;;5032404;28;20427;-69
2022/01/27 11:29:41;;;;;;;11.73;10.53;;;;;;;;;;5032339;28;20443;-69
2022/01/27 11:32:17;;;;;;;12.90;9.60;;;;;;;;;;5032302;28;20530;-69
2022/01/27 11:34:49;;;;;;;11.20;9.93;;;;;;;;;;5032031;28;20450;-69
2022/01/27 11:37:18;;;;;;;13.13;10.20;;;;;;;;;;5030331;28;20474;-68
2022/01/27 11:39:48;;;;;;;14.57;10.23;;;;;;;;;;5032477;28;20432;-68
2022/01/27 11:42:14;;;;;;;11.33;10.00;;;;;;;;;;5032147;28;20432;-70
2022/01/27 11:44:43;;;;;;;11.73;9.53;;;;;;;;;;5032310;28;20432;-69
2022/01/27 11:47:19;;;;;;;12.50;9.43;;;;;;;;;;5028654;28;20271;-68
2022/01/27 11:49:56;;;;;;;12.37;9.70;;;;;;;;;;5014342;28;20436;-70
2022/01/27 11:52:23;;;;;;;10.00;8.70;;;;;;;;;;5032060;28;20518;-68
2022/01/27 11:54:49;;;;;;;9.27;8.27;;;;;;;;;;5032123;28;20486;-69
2022/01/27 11:57:29;;;;;;;10.10;9.00;;;;;;;;;;5031999;28;21002;-68
2022/01/27 12:00:07;;;;;;;12.73;9.40;;;;;;;;;;5031342;28;20207;-68
2022/01/27 12:03:02;;;;;;;10.27;8.97;;;;;;;;;;5031580;28;20442;-69
2022/01/27 12:05:30;;;;;;;12.23;9.50;;;;;;;;;;5031690;28;20449;-68
2022/01/27 12:08:15;;;;;;;17.23;8.97;;;;;;;;;;5032110;28;20856;-70
2022/01/27 12:10:44;;;;;;;11.93;9.77;;;;;;;;;;5032186;28;20430;-67
2022/01/27 12:16:58;;;;;;;11.20;9.83;;;;;;;;;;5032079;28;20442;-68
2022/01/27 12:18:59;;;;;;;13.53;11.07;;;;;;;;;;5017774;28;20435;-69
2022/01/27 12:21:30;;;;;;;15.10;11.10;;;;;;;;;;5031817;28;20435;-68
2022/01/27 12:24:25;;;;;;;13.30;10.43;;;;;;;;;;5031910;28;20208;-69
2022/01/27 12:26:53;;;;;;;14.93;11.50;;;;;;;;;;5031814;28;20517;-70
2022/01/27 12:29:23;;;;;;;11.60;10.23;;;;;;;;;;5031694;28;20431;-69
2022/01/27 12:31:49;;;;;;;13.37;11.30;;;;;;;;;;5031878;28;20439;-66
2022/01/27 12:34:15;;;;;;;15.03;11.03;;;;;;;;;;5033209;28;20203;-68
2022/01/27 12:36:53;;;;;;;14.77;10.87;;;;;;;;;;5035333;28;20443;-69
2022/01/27 12:39:20;;;;;;;12.67;10.77;;;;;;;;;;5035124;28;20447;-68
2022/01/27 12:41:47;;;;;;;16.03;10.60;;;;;;;;;;5035203;28;20251;-68
2022/01/27 12:44:13;;;;;;;12.33;10.60;;;;;;;;;;5034928;28;20707;-68
2022/01/27 12:46:39;;;;;;;14.50;10.50;;;;;;;;;;5034998;28;20447;-67
2022/01/27 12:49:06;;;;;;;13.10;10.33;;;;;;;;;;5034899;28;20197;-67
2022/01/27 12:51:46;;;;;;;16.03;9.73;;;;;;;;;;5035194;28;20283;-68
2022/01/27 12:54:14;;;;;;;14.90;10.20;;;;;;;;;;5034980;28;20760;-68
2022/01/27 12:56:40;;;;;;;11.27;9.60;;;;;;;;;;5035026;28;20507;-69
2022/01/27 12:59:12;;;;;;;14.33;9.70;;;;;;;;;;5034762;28;20490;-68
2022/01/27 13:01:38;;;;;;;12.50;9.27;;;;;;;;;;5034993;28;20197;-64
2022/01/27 13:04:04;;;;;;;11.23;9.03;;;;;;;;;;5034639;28;20223;-71
2022/01/27 13:06:31;;;;;;;12.17;8.93;;;;;;;;;;5034780;28;20197;-75
2022/01/27 13:09:10;;;;;;;13.23;9.67;;;;;;;;;;5034732;28;20635;-65
2022/01/27 13:11:39;;;;;;;12.03;8.50;;;;;;;;;;5034435;28;20260;-65
2022/01/27 13:14:06;;;;;;;11.33;9.20;;;;;;;;;;5034433;28;20292;-63
2022/01/27 13:16:39;;;;;;;10.80;9.67;;;;;;;;;;5034410;28;20250;-69
2022/01/27 13:19:16;;;;;;;15.27;9.87;;;;;;;;;;5034508;28;20197;-66
2022/01/27 13:21:43;;;;;;;14.40;10.93;;;;;;;;;;5034566;28;20203;-67
2022/01/27 13:24:16;;;;;;;15.87;9.80;;;;;;;;;;5034220;28;20279;-66
2022/01/27 13:26:45;;;;;;;15.30;10.77;;;;;;;;;;5034539;28;20547;-66
2022/01/27 13:29:11;;;;;;;13.20;10.27;;;;;;;;;;5034127;28;20902;-67
2022/01/27 13:31:38;;;;;;;14.77;10.47;;;;;;;;;;5034240;28;20567;-66
2022/01/27 13:34:04;;;;;;;16.47;10.50;;;;;;;;;;5034141;28;20575;-67
2022/01/27 13:36:36;;;;;;;14.03;9.77;;;;;;;;;;5034539;28;20197;-66
2022/01/27 13:41:34;;;;;;;13.40;10.57;;;;;;;;;;5034256;28;20193;-67
2022/01/27 13:44:05;;;;;;;15.77;9.33;;;;;;;;;;5034033;28;20655;-66
2022/01/27 13:46:39;;;;;;;12.80;8.67;;;;;;;;;;5033747;28;20201;-67
2022/01/27 13:49:06;;;;;;;11.43;8.47;;;;;;;;;;5033877;28;20196;-67
2022/01/27 13:51:32;;;;;;;12.10;8.50;;;;;;;;;;5033794;28;20197;-67
2022/01/27 13:53:59;;;;;;;9.67;8.67;;;;;;;;;;5033859;28;20189;-67
2022/01/27 13:56:26;;;;;;;14.27;10.40;;;;;;;;;;5031885;28;20504;-68
2022/01/27 13:59:08;;;;;;;12.03;8.80;;;;;;;;;;5032587;28;20480;-66
2022/01/27 14:01:35;;;;;;;13.73;9.90;;;;;;;;;;5033408;28;20669;-68
2022/01/27 14:04:01;;;;;;;12.93;9.70;;;;;;;;;;5033276;28;20239;-66
2022/01/27 14:06:27;;;;;;;16.97;9.70;;;;;;;;;;5033371;28;20284;-63
2022/01/27 14:08:57;;;;;;;14.30;9.13;;;;;;;;;;5033275;28;20277;-64
2022/01/27 14:11:33;;;;;;;11.63;8.90;;;;;;;;;;5033197;28;20233;-65
2022/01/27 14:14:00;;;;;;;12.27;7.73;;;;;;;;;;5033310;28;20233;-69
2022/01/27 14:16:26;;;;;;;10.67;6.27;;;;;;;;;;5033144;28;20220;-66
2022/01/27 14:18:54;;;;;;;8.97;5.73;;;;;;;;;;5033040;28;20220;-66
2022/01/27 14:21:22;;;;;;;8.57;5.73;;;;;;;;;;5033112;28;20284;-65
2022/01/27 14:26:27;;;;;;;9.07;5.90;;;;;;;;;;5032997;28;20737;-67
2022/01/27 14:28:53;;;;;;;10.37;6.47;;;;;;;;;;5033266;28;20196;-66
2022/01/27 14:31:20;;;;;;;8.70;5.70;;;;;;;;;;5032813;28;20193;-67
2022/01/27 14:33:46;;;;;;;8.97;6.60;;;;;;;;;;5033278;28;20566;-66
2022/01/27 14:36:14;;;;;;;10.23;7.00;;;;;;;;;;5032906;28;20201;-68
2022/01/27 14:38:40;;;;;;;10.10;6.73;;;;;;;;;;5032915;28;20224;-67
2022/01/27 14:41:06;;;;;;;9.47;6.57;;;;;;;;;;5032520;28;20639;-67
2022/01/27 14:43:33;;;;;;;10.10;5.63;;;;;;;;;;5032580;28;20212;-67
2022/01/27 14:45:59;;;;;;;9.27;5.97;;;;;;;;;;5032635;28;20196;-66
2022/01/27 14:48:25;;;;;;;10.17;5.30;;;;;;;;;;5032145;28;20708;-64
2022/01/27 14:50:51;;;;;;;5.53;4.40;;;;;;;;;;5032709;28;20295;-65
2022/01/27 14:53:18;;;;;;;7.87;3.10;;;;;;;;;;5032610;28;20231;-64
2022/01/27 14:55:45;;;;;;;5.33;2.10;;;;;;;;;;5032631;28;20208;-65
2022/01/27 14:58:11;;;;;;;4.33;1.87;;;;;;;;;;5031800;28;20228;-63
2022/01/27 15:00:37;;;;;;;5.13;1.50;;;;;;;;;;5032594;28;20189;-62
2022/01/27 15:03:04;;;;;;;4.97;1.43;;;;;;;;;;5032466;28;20220;-63
2022/01/27 15:05:30;;;;;;;2.83;1.60;;;;;;;;;;5032466;28;20204;-64
2022/01/27 15:07:56;;;;;;;4.07;1.20;;;;;;;;;;5032546;28;20667;-64
2022/01/27 15:10:23;;;;;;;4.23;1.30;;;;;;;;;;5032316;28;20205;-64